createdAt,value
2019-04-04T00:00:28.571Z,8.83
2019-04-04T00:02:58.644Z,9.48
2019-04-04T00:05:28.197Z,7.28
2019-04-04T00:08:00.151Z,7.15
2019-04-04T00:10:29.849Z,6.03
2019-04-04T00:12:59.070Z,7.53
2019-04-04T00:15:30.091Z,5.85
2019-04-04T00:18:01.438Z,9.50
2019-04-04T00:20:31.867Z,7.55
2019-04-04T00:23:02.000Z,7.30
2019-04-04T00:25:31.368Z,7.33
2019-04-04T00:28:00.792Z,6.45
2019-04-04T00:30:30.165Z,6.08
2019-04-04T00:32:59.727Z,6.35
2019-04-04T00:35:31.154Z,7.40
2019-04-04T00:38:02.540Z,6.47
2019-04-04T00:40:31.893Z,6.62
2019-04-04T00:43:01.407Z,6.25
2019-04-04T00:45:32.748Z,6.97
2019-04-04T00:48:03.086Z,6.33
2019-04-04T00:50:39.130Z,7.42
2019-04-04T00:53:09.943Z,7.85
2019-04-04T00:55:40.760Z,7.05
2019-04-04T00:58:11.747Z,6.28
2019-04-04T01:00:44.306Z,8.90
2019-04-04T01:03:17.240Z,6.90
2019-04-04T01:05:46.589Z,8.50
2019-04-04T01:08:20.737Z,6.85
2019-04-04T01:13:21.228Z,9.03
2019-04-04T01:15:56.506Z,7.78
2019-04-04T01:18:29.446Z,7.12
2019-04-04T01:20:58.891Z,6.67
2019-04-04T01:23:28.259Z,7.08
2019-04-04T01:25:57.693Z,6.58
2019-04-04T01:28:27.137Z,8.28
2019-04-04T01:30:56.572Z,8.88
2019-04-04T01:33:29.642Z,6.95
2019-04-04T01:35:59.060Z,8.68
2019-04-04T01:38:29.153Z,7.22
2019-04-04T01:40:59.217Z,8.28
2019-04-04T01:43:29.609Z,7.72
2019-04-04T01:45:59.078Z,8.75
2019-04-04T01:48:28.480Z,9.58
2019-04-04T01:50:57.843Z,7.42
2019-04-04T01:53:28.073Z,9.60
2019-04-04T01:55:58.588Z,8.75
2019-04-04T01:58:28.033Z,8.83
2019-04-04T02:00:57.469Z,9.03
2019-04-04T02:03:26.820Z,9.33
2019-04-04T02:05:58.175Z,9.15
2019-04-04T02:08:31.372Z,7.83
2019-04-04T02:10:59.413Z,8.23
2019-04-04T02:13:28.848Z,10.55
2019-04-04T02:15:58.223Z,8.55
2019-04-04T02:18:27.660Z,7.78
2019-04-04T02:21:00.560Z,8.68
2019-04-04T02:23:31.719Z,11.88
2019-04-04T02:26:01.099Z,8.93
2019-04-04T02:28:30.544Z,7.03
2019-04-04T02:31:00.247Z,9.43
2019-04-04T02:33:32.431Z,9.78
2019-04-04T02:36:00.768Z,10.15
2019-04-04T02:38:30.398Z,8.98
2019-04-04T02:40:59.884Z,13.40
2019-04-04T02:43:29.338Z,9.45
2019-04-04T02:45:58.755Z,11.20
2019-04-04T02:48:28.201Z,12.95
2019-04-04T02:50:57.620Z,12.60
2019-04-04T02:53:27.009Z,15.40
2019-04-04T02:56:02.275Z,11.48
2019-04-04T03:01:00.459Z,12.47
2019-04-04T03:03:30.083Z,12.30
2019-04-04T03:05:59.552Z,9.18
2019-04-04T03:08:28.989Z,9.95
2019-04-04T03:10:58.494Z,8.68
2019-04-04T03:13:31.152Z,11.90
2019-04-04T03:15:59.067Z,8.63
2019-04-04T03:18:28.608Z,10.38
2019-04-04T03:20:58.058Z,8.60
2019-04-04T03:23:33.018Z,8.18
2019-04-04T03:25:59.419Z,10.78
2019-04-04T03:28:31.828Z,9.30
2019-04-04T03:31:04.216Z,9.80
2019-04-04T03:33:35.613Z,9.78
2019-04-04T03:36:05.021Z,7.33
2019-04-04T03:38:34.514Z,7.47
2019-04-04T03:41:04.121Z,8.95
2019-04-04T03:43:33.637Z,7.45
2019-04-04T03:46:07.057Z,7.58
2019-04-04T03:48:36.475Z,7.75
2019-04-04T03:51:05.929Z,9.48
2019-04-04T03:53:35.738Z,9.63
2019-04-04T03:56:05.257Z,13.10
2019-04-04T03:58:34.749Z,7.25
2019-04-04T04:01:04.104Z,8.45
2019-04-04T04:03:33.597Z,9.40
2019-04-04T04:06:08.315Z,8.05
2019-04-04T04:08:34.992Z,7.05
2019-04-04T04:11:05.771Z,7.58
2019-04-04T04:13:36.674Z,9.70
2019-04-04T04:16:06.193Z,10.08
2019-04-04T04:18:36.460Z,8.85
2019-04-04T04:21:09.800Z,8.73
2019-04-04T04:23:36.962Z,7.72
2019-04-04T04:26:09.525Z,9.40
2019-04-04T04:28:41.099Z,9.68
2019-04-04T04:33:40.710Z,13.93
2019-04-04T04:36:12.839Z,11.30
2019-04-04T04:38:41.195Z,8.73
2019-04-04T04:41:11.912Z,12.07
2019-04-04T04:43:47.029Z,10.15
2019-04-04T04:46:17.908Z,11.12
2019-04-04T04:48:47.602Z,11.88
2019-04-04T04:51:17.071Z,10.18
2019-04-04T04:53:50.447Z,9.15
2019-04-04T04:56:17.733Z,11.40
2019-04-04T04:58:47.217Z,15.58
2019-04-04T05:01:18.331Z,10.63
2019-04-04T05:03:51.221Z,13.38
2019-04-04T05:06:20.694Z,11.08
2019-04-04T05:08:50.186Z,11.05
2019-04-04T05:11:25.385Z,12.88
2019-04-04T05:13:56.118Z,11.97
2019-04-04T05:16:26.012Z,12.20
2019-04-04T05:18:55.429Z,12.55
2019-04-04T05:21:28.534Z,12.03
2019-04-04T05:23:55.908Z,14.15
2019-04-04T05:26:25.396Z,14.55
2019-04-04T05:28:57.169Z,12.20
2019-04-04T05:31:26.719Z,14.45
2019-04-04T05:33:58.869Z,17.10
2019-04-04T05:36:27.425Z,12.78
2019-04-04T05:38:56.919Z,15.00
2019-04-04T05:41:27.246Z,14.63
2019-04-04T05:43:57.740Z,15.78
2019-04-04T05:46:27.208Z,15.25
2019-04-04T05:49:00.972Z,14.43
2019-04-04T05:54:01.733Z,13.78
2019-04-04T05:56:31.168Z,15.30
2019-04-04T05:59:01.583Z,14.50
2019-04-04T06:01:31.018Z,16.65
2019-04-04T06:04:04.725Z,13.72
2019-04-04T06:06:40.012Z,16.48
2019-04-04T06:09:09.603Z,14.45
2019-04-04T06:11:39.045Z,15.63
2019-04-04T06:14:08.477Z,17.23
2019-04-04T06:16:37.870Z,15.80
2019-04-04T06:19:07.290Z,15.95
2019-04-04T06:21:36.777Z,16.25
2019-04-04T06:24:06.310Z,18.40
2019-04-04T06:26:36.120Z,16.93
2019-04-04T06:29:06.865Z,15.35
2019-04-04T06:31:36.526Z,21.17
2019-04-04T06:34:10.476Z,21.55
2019-04-04T06:36:42.123Z,18.30
2019-04-04T06:39:11.589Z,16.23
2019-04-04T06:41:41.021Z,15.13
2019-04-04T06:44:10.983Z,14.38
2019-04-04T06:46:41.488Z,23.18
2019-04-04T06:49:10.924Z,19.70
2019-04-04T06:51:46.088Z,15.30
2019-04-04T06:54:15.255Z,17.40
2019-04-04T06:56:44.823Z,15.58
2019-04-04T06:59:14.184Z,17.98
2019-04-04T07:01:45.768Z,20.72
2019-04-04T07:04:17.242Z,21.57
2019-04-04T07:06:46.324Z,16.97
2019-04-04T07:09:18.079Z,15.68
2019-04-04T07:11:47.057Z,17.35
2019-04-04T07:14:16.477Z,16.00
2019-04-04T07:16:46.834Z,15.85
2019-04-04T07:19:16.219Z,18.73
2019-04-04T07:21:45.661Z,19.65
2019-04-04T07:24:18.149Z,14.20
2019-04-04T07:26:47.700Z,15.20
2019-04-04T07:29:18.168Z,15.55
2019-04-04T07:31:47.593Z,15.15
2019-04-04T07:34:17.022Z,15.60
2019-04-04T07:36:51.178Z,18.67
2019-04-04T07:39:22.630Z,14.73
2019-04-04T07:41:52.092Z,13.70
2019-04-04T07:44:23.388Z,17.27
2019-04-04T07:46:52.604Z,16.48
2019-04-04T07:49:23.940Z,14.93
2019-04-04T07:51:53.492Z,14.23
2019-04-04T07:54:31.682Z,12.82
2019-04-04T07:57:00.856Z,16.35
2019-04-04T07:59:31.154Z,16.27
2019-04-04T08:02:00.819Z,15.65
2019-04-04T08:04:31.197Z,12.85
2019-04-04T08:07:00.647Z,13.08
2019-04-04T08:09:31.101Z,16.80
2019-04-04T08:12:01.478Z,12.13
2019-04-04T08:14:32.818Z,13.38
2019-04-04T08:17:02.294Z,17.95
2019-04-04T08:19:31.713Z,14.93
2019-04-04T08:22:01.208Z,14.25
2019-04-04T08:24:36.317Z,13.45
2019-04-04T08:27:06.242Z,11.57
2019-04-04T08:29:37.590Z,12.47
2019-04-04T08:32:07.153Z,13.53
2019-04-04T08:34:37.242Z,13.18
2019-04-04T08:37:06.807Z,16.85
2019-04-04T08:39:36.220Z,14.63
2019-04-04T08:42:05.780Z,13.32
2019-04-04T08:44:40.897Z,14.30
2019-04-04T08:47:12.167Z,14.90
2019-04-04T08:49:47.541Z,13.60
2019-04-04T08:52:20.531Z,14.63
2019-04-04T08:54:53.745Z,14.15
2019-04-04T08:57:23.298Z,16.67
2019-04-04T08:59:53.882Z,15.18
2019-04-04T09:02:24.299Z,16.17
2019-04-04T09:04:56.347Z,13.80
2019-04-04T09:07:25.734Z,12.63
2019-04-04T09:09:55.268Z,14.43
2019-04-04T09:12:24.901Z,12.68
2019-04-04T09:14:55.188Z,15.40
2019-04-04T09:17:25.861Z,16.42
2019-04-04T09:19:55.317Z,17.57
2019-04-04T09:22:25.475Z,12.58
2019-04-04T09:24:55.108Z,15.75
2019-04-04T09:27:24.511Z,13.13
2019-04-04T09:29:53.932Z,11.90
2019-04-04T09:32:23.428Z,12.23
2019-04-04T09:34:52.980Z,13.00
2019-04-04T09:37:22.414Z,13.85
2019-04-04T09:39:51.858Z,12.73
2019-04-04T09:42:22.200Z,11.80
2019-04-04T09:44:51.633Z,11.70
2019-04-04T09:47:21.233Z,13.03
2019-04-04T09:49:50.685Z,12.45
2019-04-04T09:52:20.147Z,13.03
2019-04-04T09:54:49.568Z,14.55
2019-04-04T09:57:18.952Z,15.68
2019-04-04T09:59:50.352Z,14.83
2019-04-04T10:02:19.744Z,12.07
2019-04-04T10:04:50.128Z,12.00
2019-04-04T10:07:19.683Z,11.15
2019-04-04T10:09:49.097Z,13.78
2019-04-04T10:12:18.478Z,11.03
2019-04-04T10:14:48.864Z,13.65
2019-04-04T10:17:18.237Z,13.05
2019-04-04T10:19:47.660Z,14.13
2019-04-04T10:22:17.042Z,12.05
2019-04-04T10:24:49.724Z,13.55
2019-04-04T10:27:19.228Z,12.23
2019-04-04T10:29:48.633Z,12.35
2019-04-04T10:32:19.169Z,12.58
2019-04-04T10:34:55.837Z,13.20
2019-04-04T10:37:30.221Z,10.03
2019-04-04T10:40:00.145Z,11.68
2019-04-04T10:42:29.657Z,12.50
2019-04-04T10:44:59.243Z,9.35
2019-04-04T10:47:28.622Z,11.20
2019-04-04T10:49:58.581Z,11.20
2019-04-04T10:52:28.081Z,9.25
2019-04-04T10:54:57.519Z,10.23
2019-04-04T10:57:27.016Z,10.53
2019-04-04T10:59:56.391Z,9.98
2019-04-04T11:02:29.349Z,11.33
2019-04-04T11:07:27.401Z,7.35
2019-04-04T11:09:56.842Z,7.92
2019-04-04T11:12:26.385Z,8.95
2019-04-04T11:14:55.816Z,11.28
2019-04-04T11:17:27.822Z,8.38
2019-04-04T11:19:58.178Z,8.73
2019-04-04T11:22:27.697Z,8.58
2019-04-04T11:24:57.285Z,7.40
2019-04-04T11:27:28.644Z,5.05
2019-04-04T11:29:58.312Z,5.67
2019-04-04T11:32:29.716Z,2.08
2019-04-04T11:34:59.181Z,2.08
2019-04-04T11:37:28.844Z,3.40
2019-04-04T11:39:59.754Z,3.98
2019-04-04T11:42:30.740Z,17.77
2019-04-04T11:45:00.264Z,6.72
2019-04-04T11:47:32.022Z,11.43
2019-04-04T11:50:04.507Z,8.95
2019-04-04T11:52:35.190Z,10.60
2019-04-04T11:55:05.444Z,6.90
2019-04-04T11:57:34.876Z,9.80
2019-04-04T12:00:07.292Z,7.90
2019-04-04T12:02:36.788Z,8.95
2019-04-04T12:05:09.368Z,6.53
2019-04-04T12:07:39.696Z,6.75
2019-04-04T12:10:10.207Z,6.60
2019-04-04T12:12:39.891Z,8.63
2019-04-04T12:15:10.565Z,11.68
2019-04-04T12:17:43.802Z,5.92
2019-04-04T12:20:13.497Z,6.55
2019-04-04T12:22:42.898Z,7.28
2019-04-04T12:25:12.484Z,5.58
2019-04-04T12:27:41.905Z,7.72
2019-04-04T12:30:11.702Z,8.15
2019-04-04T12:32:41.116Z,6.42
2019-04-04T12:35:10.620Z,7.12
2019-04-04T12:37:39.984Z,5.37
2019-04-04T12:40:19.860Z,10.03
2019-04-04T12:42:41.023Z,6.45
2019-04-04T12:45:10.827Z,6.25
2019-04-04T12:47:40.272Z,8.83
2019-04-04T12:50:10.281Z,7.12
2019-04-04T12:52:39.717Z,5.90
2019-04-04T12:55:09.614Z,7.80
2019-04-04T12:57:39.106Z,8.98
2019-04-04T13:00:09.860Z,9.43
2019-04-04T13:02:39.363Z,8.40
2019-04-04T13:05:09.111Z,9.65
2019-04-04T13:07:38.564Z,6.58
2019-04-04T13:10:11.768Z,10.35
2019-04-04T13:12:40.312Z,9.30
2019-04-04T13:15:11.681Z,6.33
2019-04-04T13:17:41.100Z,8.05
2019-04-04T13:20:11.332Z,4.90
2019-04-04T13:22:40.699Z,6.05
2019-04-04T13:25:10.406Z,8.53
2019-04-04T13:27:39.947Z,7.67
2019-04-04T13:30:11.619Z,6.00
2019-04-04T13:32:42.200Z,7.80
2019-04-04T13:35:11.840Z,6.70
2019-04-04T13:37:43.196Z,7.42
2019-04-04T13:40:12.857Z,6.03
2019-04-04T13:42:42.322Z,7.08
2019-04-04T13:45:11.918Z,6.87
2019-04-04T13:47:43.436Z,5.80
2019-04-04T13:50:13.249Z,7.03
2019-04-04T13:52:42.745Z,8.00
2019-04-04T13:55:12.343Z,6.28
2019-04-04T13:57:41.912Z,7.75
2019-04-04T14:00:11.863Z,11.00
2019-04-04T14:02:42.222Z,6.97
2019-04-04T14:05:14.324Z,8.90
2019-04-04T14:07:43.877Z,8.20
2019-04-04T14:10:17.568Z,6.90
2019-04-04T14:15:16.165Z,6.33
2019-04-04T14:17:45.618Z,8.43
2019-04-04T14:20:15.189Z,8.80
2019-04-04T14:22:47.752Z,8.25
2019-04-04T14:25:16.710Z,8.60
2019-04-04T14:27:46.141Z,7.72
2019-04-04T14:30:15.956Z,6.95
2019-04-04T14:32:45.399Z,11.40
2019-04-04T14:35:16.294Z,9.10
2019-04-04T14:37:45.898Z,5.87
2019-04-04T14:40:15.422Z,5.58
2019-04-04T14:42:44.916Z,7.90
2019-04-04T14:45:14.439Z,7.70
2019-04-04T14:47:43.876Z,9.10
2019-04-04T14:50:13.452Z,6.45
2019-04-04T14:52:42.841Z,7.40
2019-04-04T14:55:12.818Z,9.00
2019-04-04T14:57:42.286Z,7.30
2019-04-04T15:00:15.736Z,9.08
2019-04-04T15:05:13.372Z,8.55
2019-04-04T15:07:43.804Z,7.03
2019-04-04T15:10:13.377Z,7.35
2019-04-04T15:12:42.826Z,6.30
2019-04-04T15:15:12.521Z,8.95
2019-04-04T15:17:41.957Z,8.85
2019-04-04T15:20:12.163Z,6.75
2019-04-04T15:22:43.412Z,7.00
2019-04-04T15:25:15.949Z,5.70
2019-04-04T15:27:45.400Z,6.62
2019-04-04T15:30:15.850Z,5.70
2019-04-04T15:32:45.696Z,6.70
2019-04-04T15:35:15.222Z,8.30
2019-04-04T15:37:44.691Z,5.05
2019-04-04T15:40:14.245Z,7.75
2019-04-04T15:42:44.756Z,7.08
2019-04-04T15:45:17.912Z,5.90
2019-04-04T15:47:47.462Z,6.62
2019-04-04T15:50:18.933Z,7.65
2019-04-04T15:52:53.056Z,7.97
2019-04-04T15:55:22.480Z,5.55
2019-04-04T15:57:52.412Z,5.28
2019-04-04T16:00:21.912Z,8.90
2019-04-04T16:02:52.482Z,8.33
2019-04-04T16:05:21.890Z,5.72
2019-04-04T16:07:55.021Z,6.00
2019-04-04T16:10:27.593Z,6.90
2019-04-04T16:12:57.096Z,7.17
2019-04-04T16:15:26.638Z,6.80
2019-04-04T16:17:56.124Z,7.22
2019-04-04T16:20:25.626Z,8.05
2019-04-04T16:22:55.236Z,5.33
2019-04-04T16:25:26.658Z,7.42
2019-04-04T16:27:56.101Z,7.90
2019-04-04T16:30:28.563Z,10.48
2019-04-04T16:33:00.859Z,5.37
2019-04-04T16:35:34.093Z,7.45
2019-04-04T16:38:06.109Z,7.97
2019-04-04T16:40:35.666Z,6.77
2019-04-04T16:43:05.168Z,5.45
2019-04-04T16:45:34.545Z,8.55
2019-04-04T16:48:04.054Z,6.53
2019-04-04T16:50:33.532Z,9.73
2019-04-04T16:53:03.447Z,6.00
2019-04-04T16:55:32.889Z,5.90
2019-04-04T16:58:02.347Z,7.50
2019-04-04T17:00:31.859Z,9.65
2019-04-04T17:03:01.378Z,6.17
2019-04-04T17:05:30.835Z,6.55
2019-04-04T17:08:00.287Z,7.35
2019-04-04T17:10:29.733Z,5.40
2019-04-04T17:13:00.525Z,6.25
2019-04-04T17:15:29.907Z,5.87
2019-04-04T17:17:59.404Z,6.42
2019-04-04T17:20:28.896Z,8.00
2019-04-04T17:22:58.341Z,6.70
2019-04-04T17:25:27.848Z,5.22
2019-04-04T17:27:57.391Z,6.33
2019-04-04T17:30:26.903Z,10.18
2019-04-04T17:32:56.681Z,6.45
2019-04-04T17:35:26.092Z,7.42
2019-04-04T17:37:56.615Z,7.67
2019-04-04T17:40:26.413Z,6.35
2019-04-04T17:42:56.963Z,5.95
2019-04-04T17:45:26.485Z,6.75
2019-04-04T17:47:57.109Z,4.17
2019-04-04T17:50:26.827Z,3.87
2019-04-04T17:52:56.421Z,5.90
2019-04-04T17:55:26.364Z,8.30
2019-04-04T17:57:57.924Z,4.15
2019-04-04T18:03:01.434Z,7.83
2019-04-04T18:05:32.872Z,7.25
2019-04-04T18:08:03.775Z,6.70
2019-04-04T18:10:44.922Z,6.65
2019-04-04T18:13:18.903Z,3.87
2019-04-04T18:15:51.393Z,5.10
2019-04-04T18:18:22.183Z,4.95
2019-04-04T18:20:55.362Z,5.65
2019-04-04T18:23:27.001Z,6.20
2019-04-04T18:25:57.418Z,5.95
2019-04-04T18:28:28.877Z,7.15
2019-04-04T18:31:00.164Z,6.92
2019-04-04T18:33:31.787Z,8.15
2019-04-04T18:36:05.722Z,9.30
2019-04-04T18:38:35.582Z,7.33
2019-04-04T18:41:07.104Z,10.53
2019-04-04T18:43:37.092Z,8.15
2019-04-04T18:46:07.618Z,7.47
2019-04-04T18:48:38.123Z,7.78
2019-04-04T18:51:15.882Z,7.55
2019-04-04T18:53:47.988Z,7.75
2019-04-04T18:56:18.957Z,10.63
2019-04-04T18:58:48.606Z,7.55
2019-04-04T19:01:18.204Z,8.13
2019-04-04T19:03:47.760Z,10.40
2019-04-04T19:06:17.593Z,12.47
2019-04-04T19:08:50.660Z,6.90
2019-04-04T19:11:20.434Z,8.43
2019-04-04T19:13:49.911Z,6.62
2019-04-04T19:16:19.358Z,7.50
2019-04-04T19:18:49.755Z,9.78
2019-04-04T19:21:19.298Z,10.35
2019-04-04T19:23:52.281Z,7.35
2019-04-04T19:28:51.453Z,8.33
2019-04-04T19:31:22.548Z,10.40
2019-04-04T19:33:52.098Z,10.93
2019-04-04T19:36:21.577Z,9.60
2019-04-04T19:38:51.249Z,8.35
2019-04-04T19:41:20.668Z,8.78
2019-04-04T19:43:50.194Z,14.47
2019-04-04T19:46:19.873Z,10.50
2019-04-04T19:48:49.342Z,10.93
2019-04-04T19:51:18.790Z,11.43
2019-04-04T19:53:49.291Z,8.43
2019-04-04T19:59:09.076Z,14.60
2019-04-04T20:01:39.443Z,10.25
2019-04-04T20:04:10.206Z,10.88
2019-04-04T20:06:41.718Z,10.78
2019-04-04T20:09:13.857Z,8.80
2019-04-04T20:11:50.726Z,11.90
2019-04-04T20:14:20.224Z,9.88
2019-04-04T20:16:49.699Z,10.38
2019-04-04T20:19:19.201Z,9.60
2019-04-04T20:21:48.650Z,10.43
2019-04-04T20:24:18.125Z,9.88
2019-04-04T20:26:48.533Z,11.80
2019-04-04T20:29:20.830Z,8.40
2019-04-04T20:31:58.956Z,10.30
2019-04-04T20:34:38.531Z,11.18
2019-04-04T20:37:10.050Z,8.73
2019-04-04T20:39:40.586Z,11.25
2019-04-04T20:42:11.695Z,11.47
2019-04-04T20:44:43.160Z,15.65
2019-04-04T20:47:15.075Z,14.20
2019-04-04T20:49:46.610Z,12.75
2019-04-04T20:52:16.039Z,12.75
2019-04-04T20:54:49.105Z,14.25
2019-04-04T20:59:47.183Z,10.80
2019-04-04T21:02:16.600Z,11.50
2019-04-04T21:04:46.036Z,12.30
2019-04-04T21:07:15.518Z,12.70
2019-04-04T21:09:44.950Z,8.88
2019-04-04T21:12:16.436Z,12.65
2019-04-04T21:14:46.754Z,11.00
2019-04-04T21:17:16.261Z,11.05
2019-04-04T21:19:45.625Z,12.95
2019-04-04T21:22:27.026Z,11.22
2019-04-04T21:24:49.835Z,8.75
2019-04-04T21:27:19.297Z,12.23
2019-04-04T21:29:49.699Z,12.35
2019-04-04T21:32:20.105Z,13.13
2019-04-04T21:34:49.561Z,9.08
2019-04-04T21:37:20.924Z,9.63
2019-04-04T21:39:50.291Z,11.12
2019-04-04T21:42:20.686Z,10.00
2019-04-04T21:44:50.108Z,12.47
2019-04-04T21:47:26.684Z,12.07
2019-04-04T21:49:55.057Z,9.30
2019-04-04T21:52:24.539Z,11.12
2019-04-04T21:54:54.006Z,9.90
2019-04-04T21:57:23.427Z,9.60
2019-04-04T21:59:52.902Z,11.55
2019-04-04T22:02:22.593Z,11.10
2019-04-04T22:04:52.032Z,11.00
2019-04-04T22:07:21.464Z,9.50
2019-04-04T22:09:50.822Z,14.50
2019-04-04T22:12:20.308Z,8.83
2019-04-04T22:14:50.776Z,11.10
2019-04-04T22:17:21.098Z,12.80
2019-04-04T22:19:50.557Z,12.90
2019-04-04T22:22:21.931Z,10.70
2019-04-04T22:24:51.541Z,13.48
2019-04-04T22:27:21.005Z,10.88
2019-04-04T22:29:50.453Z,9.38
2019-04-04T22:32:20.763Z,10.75
2019-04-04T22:34:51.111Z,11.88
2019-04-04T22:37:20.581Z,12.28
2019-04-04T22:39:50.009Z,8.83
2019-04-04T22:42:19.546Z,10.63
2019-04-04T22:44:49.001Z,12.58
2019-04-04T22:47:18.433Z,12.33
2019-04-04T22:49:47.902Z,11.97
2019-04-04T22:52:17.320Z,12.28
2019-04-04T22:54:46.758Z,10.90
2019-04-04T22:57:17.257Z,10.38
2019-04-04T22:59:46.619Z,11.30
2019-04-04T23:02:16.068Z,11.68
2019-04-04T23:04:45.505Z,11.60
2019-04-04T23:07:14.861Z,12.65
2019-04-04T23:09:44.298Z,11.57
2019-04-04T23:12:13.727Z,11.35
2019-04-04T23:14:48.273Z,9.73
2019-04-04T23:17:15.225Z,11.35
2019-04-04T23:19:44.658Z,13.43
2019-04-04T23:22:14.169Z,9.98
2019-04-04T23:24:43.582Z,9.08
2019-04-04T23:27:13.038Z,12.98
2019-04-04T23:29:42.797Z,11.20
2019-04-04T23:32:12.312Z,14.15
2019-04-04T23:34:41.831Z,11.38
2019-04-04T23:37:11.258Z,8.03
2019-04-04T23:39:40.752Z,10.15
2019-04-04T23:42:10.186Z,10.93
2019-04-04T23:44:39.691Z,12.03
2019-04-04T23:47:09.120Z,11.45
2019-04-04T23:49:38.572Z,9.10
2019-04-04T23:52:08.008Z,7.92
2019-04-04T23:54:37.416Z,8.95
2019-04-04T23:57:06.770Z,8.13
2019-04-04T23:59:36.223Z,8.10
